sensor_id;sensor_type;location;lat;lon;timestamp;P1;durP1;ratioP1;P2;durP2;ratioP2
70787;SDS011;58391;47.752;19.100;2022-08-19T00:01:49;2.25;;;1.23;;
70787;SDS011;58391;47.752;19.100;2022-08-19T00:04:20;2.72;;;1.87;;
70787;SDS011;58391;47.752;19.100;2022-08-19T00:06:49;2.05;;;0.90;;
70787;SDS011;58391;47.752;19.100;2022-08-19T00:09:17;2.62;;;1.02;;
70787;SDS011;58391;47.752;19.100;2022-08-19T00:11:45;3.07;;;1.77;;
70787;SDS011;58391;47.752;19.100;2022-08-19T00:14:13;3.07;;;1.40;;
70787;SDS011;58391;47.752;19.100;2022-08-19T00:16:43;1.95;;;0.95;;
70787;SDS011;58391;47.752;19.100;2022-08-19T00:19:11;2.40;;;1.05;;
70787;SDS011;58391;47.752;19.100;2022-08-19T00:21:38;1.93;;;0.83;;
70787;SDS011;58391;47.752;19.100;2022-08-19T00:24:07;2.50;;;1.02;;
70787;SDS011;58391;47.752;19.100;2022-08-19T00:26:40;2.00;;;0.88;;
70787;SDS011;58391;47.752;19.100;2022-08-19T00:29:14;2.87;;;1.10;;
70787;SDS011;58391;47.752;19.100;2022-08-19T00:31:47;2.08;;;0.95;;
70787;SDS011;58391;47.752;19.100;2022-08-19T00:34:20;2.00;;;0.90;;
70787;SDS011;58391;47.752;19.100;2022-08-19T00:36:52;1.90;;;0.75;;
70787;SDS011;58391;47.752;19.100;2022-08-19T00:39:19;1.90;;;0.90;;
70787;SDS011;58391;47.752;19.100;2022-08-19T00:41:48;3.47;;;1.27;;
70787;SDS011;58391;47.752;19.100;2022-08-19T00:44:26;2.33;;;0.80;;
70787;SDS011;58391;47.752;19.100;2022-08-19T00:47:02;2.10;;;0.90;;
70787;SDS011;58391;47.752;19.100;2022-08-19T00:49:45;4.47;;;1.60;;
70787;SDS011;58391;47.752;19.100;2022-08-19T00:52:24;4.15;;;1.20;;
70787;SDS011;58391;47.752;19.100;2022-08-19T00:55:01;4.18;;;1.50;;
70787;SDS011;58391;47.752;19.100;2022-08-19T00:57:35;2.47;;;1.00;;
70787;SDS011;58391;47.752;19.100;2022-08-19T01:00:14;3.65;;;1.23;;
70787;SDS011;58391;47.752;19.100;2022-08-19T01:02:50;1.90;;;0.80;;
70787;SDS011;58391;47.752;19.100;2022-08-19T01:05:24;1.90;;;0.93;;
70787;SDS011;58391;47.752;19.100;2022-08-19T01:08:03;2.27;;;0.80;;
70787;SDS011;58391;47.752;19.100;2022-08-19T01:10:36;1.77;;;0.85;;
70787;SDS011;58391;47.752;19.100;2022-08-19T01:13:19;2.78;;;1.12;;
70787;SDS011;58391;47.752;19.100;2022-08-19T01:15:59;2.78;;;0.95;;
70787;SDS011;58391;47.752;19.100;2022-08-19T01:18:35;2.57;;;0.97;;
70787;SDS011;58391;47.752;19.100;2022-08-19T01:21:11;2.62;;;1.17;;
70787;SDS011;58391;47.752;19.100;2022-08-19T01:23:46;2.42;;;1.08;;
70787;SDS011;58391;47.752;19.100;2022-08-19T01:26:23;2.60;;;0.80;;
70787;SDS011;58391;47.752;19.100;2022-08-19T01:28:58;2.03;;;0.88;;
70787;SDS011;58391;47.752;19.100;2022-08-19T01:31:32;3.40;;;1.30;;
70787;SDS011;58391;47.752;19.100;2022-08-19T01:34:05;2.15;;;1.02;;
70787;SDS011;58391;47.752;19.100;2022-08-19T01:36:44;1.98;;;0.88;;
70787;SDS011;58391;47.752;19.100;2022-08-19T01:39:20;2.90;;;0.98;;
70787;SDS011;58391;47.752;19.100;2022-08-19T01:41:54;2.67;;;1.30;;
70787;SDS011;58391;47.752;19.100;2022-08-19T01:44:21;2.73;;;1.00;;
70787;SDS011;58391;47.752;19.100;2022-08-19T01:46:50;1.77;;;0.60;;
70787;SDS011;58391;47.752;19.100;2022-08-19T01:49:19;2.33;;;0.90;;
70787;SDS011;58391;47.752;19.100;2022-08-19T01:51:47;2.22;;;1.20;;
70787;SDS011;58391;47.752;19.100;2022-08-19T01:54:16;1.90;;;0.83;;
70787;SDS011;58391;47.752;19.100;2022-08-19T01:56:55;2.00;;;0.70;;
70787;SDS011;58391;47.752;19.100;2022-08-19T01:59:24;2.25;;;0.90;;
70787;SDS011;58391;47.752;19.100;2022-08-19T02:01:51;1.77;;;0.70;;
70787;SDS011;58391;47.752;19.100;2022-08-19T02:04:19;2.10;;;0.97;;
70787;SDS011;58391;47.752;19.100;2022-08-19T02:06:47;2.05;;;0.85;;
70787;SDS011;58391;47.752;19.100;2022-08-19T02:09:14;1.98;;;0.80;;
70787;SDS011;58391;47.752;19.100;2022-08-19T02:11:42;1.83;;;0.73;;
70787;SDS011;58391;47.752;19.100;2022-08-19T02:14:09;2.55;;;0.90;;
70787;SDS011;58391;47.752;19.100;2022-08-19T02:16:36;1.90;;;0.82;;
70787;SDS011;58391;47.752;19.100;2022-08-19T02:19:03;3.80;;;0.98;;
70787;SDS011;58391;47.752;19.100;2022-08-19T02:21:30;1.75;;;0.82;;
70787;SDS011;58391;47.752;19.100;2022-08-19T02:23:57;1.80;;;0.60;;
70787;SDS011;58391;47.752;19.100;2022-08-19T02:26:24;2.37;;;1.10;;
70787;SDS011;58391;47.752;19.100;2022-08-19T02:28:53;1.70;;;0.60;;
70787;SDS011;58391;47.752;19.100;2022-08-19T02:31:21;1.77;;;0.82;;
70787;SDS011;58391;47.752;19.100;2022-08-19T02:33:51;1.70;;;0.67;;
70787;SDS011;58391;47.752;19.100;2022-08-19T02:36:23;1.62;;;0.62;;
70787;SDS011;58391;47.752;19.100;2022-08-19T02:38:51;2.28;;;0.80;;
70787;SDS011;58391;47.752;19.100;2022-08-19T02:41:25;2.55;;;1.00;;
70787;SDS011;58391;47.752;19.100;2022-08-19T02:43:54;2.20;;;0.93;;
70787;SDS011;58391;47.752;19.100;2022-08-19T02:46:44;2.10;;;0.93;;
70787;SDS011;58391;47.752;19.100;2022-08-19T02:49:12;1.42;;;0.52;;
70787;SDS011;58391;47.752;19.100;2022-08-19T02:51:40;1.67;;;0.77;;
70787;SDS011;58391;47.752;19.100;2022-08-19T02:54:09;3.12;;;0.98;;
70787;SDS011;58391;47.752;19.100;2022-08-19T02:56:36;2.05;;;0.85;;
70787;SDS011;58391;47.752;19.100;2022-08-19T02:59:05;2.22;;;1.25;;
70787;SDS011;58391;47.752;19.100;2022-08-19T03:01:36;3.57;;;0.80;;
70787;SDS011;58391;47.752;19.100;2022-08-19T03:04:08;2.35;;;0.85;;
70787;SDS011;58391;47.752;19.100;2022-08-19T03:06:36;2.87;;;0.97;;
70787;SDS011;58391;47.752;19.100;2022-08-19T03:09:05;3.40;;;1.10;;
70787;SDS011;58391;47.752;19.100;2022-08-19T03:11:32;4.28;;;1.10;;
70787;SDS011;58391;47.752;19.100;2022-08-19T03:13:59;3.30;;;1.42;;
70787;SDS011;58391;47.752;19.100;2022-08-19T03:16:28;2.15;;;0.98;;
70787;SDS011;58391;47.752;19.100;2022-08-19T03:18:59;1.87;;;1.00;;
70787;SDS011;58391;47.752;19.100;2022-08-19T03:21:28;1.90;;;0.80;;
70787;SDS011;58391;47.752;19.100;2022-08-19T03:23:58;2.00;;;0.80;;
70787;SDS011;58391;47.752;19.100;2022-08-19T03:26:27;2.62;;;0.80;;
70787;SDS011;58391;47.752;19.100;2022-08-19T03:28:54;3.23;;;0.63;;
70787;SDS011;58391;47.752;19.100;2022-08-19T03:31:25;2.00;;;0.80;;
70787;SDS011;58391;47.752;19.100;2022-08-19T03:34:15;1.73;;;0.75;;
70787;SDS011;58391;47.752;19.100;2022-08-19T03:36:44;1.70;;;0.70;;
70787;SDS011;58391;47.752;19.100;2022-08-19T03:39:12;2.25;;;1.15;;
70787;SDS011;58391;47.752;19.100;2022-08-19T03:41:40;1.90;;;0.80;;
70787;SDS011;58391;47.752;19.100;2022-08-19T03:44:12;2.57;;;0.80;;
70787;SDS011;58391;47.752;19.100;2022-08-19T03:46:44;2.05;;;0.75;;
70787;SDS011;58391;47.752;19.100;2022-08-19T03:49:12;1.65;;;0.70;;
70787;SDS011;58391;47.752;19.100;2022-08-19T03:51:40;2.17;;;0.93;;
70787;SDS011;58391;47.752;19.100;2022-08-19T03:54:09;1.70;;;0.77;;
70787;SDS011;58391;47.752;19.100;2022-08-19T03:56:38;1.80;;;0.70;;
70787;SDS011;58391;47.752;19.100;2022-08-19T03:59:08;2.37;;;0.88;;
70787;SDS011;58391;47.752;19.100;2022-08-19T04:01:37;2.33;;;0.83;;
70787;SDS011;58391;47.752;19.100;2022-08-19T04:04:04;2.30;;;1.05;;
70787;SDS011;58391;47.752;19.100;2022-08-19T04:06:33;2.40;;;1.15;;
70787;SDS011;58391;47.752;19.100;2022-08-19T04:09:06;7.50;;;1.77;;
70787;SDS011;58391;47.752;19.100;2022-08-19T04:11:42;5.30;;;1.10;;
70787;SDS011;58391;47.752;19.100;2022-08-19T04:14:12;2.23;;;1.00;;
70787;SDS011;58391;47.752;19.100;2022-08-19T04:16:40;2.35;;;0.90;;
70787;SDS011;58391;47.752;19.100;2022-08-19T04:19:09;2.40;;;0.88;;
70787;SDS011;58391;47.752;19.100;2022-08-19T04:21:35;2.65;;;1.20;;
70787;SDS011;58391;47.752;19.100;2022-08-19T04:24:03;2.47;;;1.20;;
70787;SDS011;58391;47.752;19.100;2022-08-19T04:26:31;2.75;;;1.02;;
70787;SDS011;58391;47.752;19.100;2022-08-19T04:29:03;3.28;;;0.85;;
70787;SDS011;58391;47.752;19.100;2022-08-19T04:31:38;1.50;;;0.60;;
70787;SDS011;58391;47.752;19.100;2022-08-19T04:34:07;2.80;;;1.50;;
70787;SDS011;58391;47.752;19.100;2022-08-19T04:36:37;2.05;;;0.98;;
70787;SDS011;58391;47.752;19.100;2022-08-19T04:39:10;1.87;;;0.80;;
70787;SDS011;58391;47.752;19.100;2022-08-19T04:41:38;3.35;;;0.85;;
70787;SDS011;58391;47.752;19.100;2022-08-19T04:44:24;2.67;;;0.77;;
70787;SDS011;58391;47.752;19.100;2022-08-19T04:46:52;2.12;;;1.08;;
70787;SDS011;58391;47.752;19.100;2022-08-19T04:49:20;3.10;;;1.48;;
70787;SDS011;58391;47.752;19.100;2022-08-19T04:51:49;2.10;;;0.70;;
70787;SDS011;58391;47.752;19.100;2022-08-19T04:54:18;2.33;;;1.03;;
70787;SDS011;58391;47.752;19.100;2022-08-19T04:57:05;2.20;;;0.85;;
70787;SDS011;58391;47.752;19.100;2022-08-19T04:59:34;1.92;;;0.85;;
70787;SDS011;58391;47.752;19.100;2022-08-19T05:02:02;5.45;;;0.77;;
70787;SDS011;58391;47.752;19.100;2022-08-19T05:04:30;2.23;;;0.87;;
70787;SDS011;58391;47.752;19.100;2022-08-19T05:07:00;1.85;;;0.75;;
70787;SDS011;58391;47.752;19.100;2022-08-19T05:09:28;3.30;;;0.95;;
70787;SDS011;58391;47.752;19.100;2022-08-19T05:12:16;2.05;;;0.90;;
70787;SDS011;58391;47.752;19.100;2022-08-19T05:14:43;1.93;;;0.80;;
70787;SDS011;58391;47.752;19.100;2022-08-19T05:17:12;2.00;;;1.20;;
70787;SDS011;58391;47.752;19.100;2022-08-19T05:20:00;2.17;;;1.12;;
70787;SDS011;58391;47.752;19.100;2022-08-19T05:22:46;5.78;;;2.30;;
70787;SDS011;58391;47.752;19.100;2022-08-19T05:25:16;2.40;;;1.37;;
70787;SDS011;58391;47.752;19.100;2022-08-19T05:27:47;2.42;;;0.90;;
70787;SDS011;58391;47.752;19.100;2022-08-19T05:30:15;5.40;;;1.98;;
70787;SDS011;58391;47.752;19.100;2022-08-19T05:32:43;1.90;;;0.90;;
70787;SDS011;58391;47.752;19.100;2022-08-19T05:35:10;1.80;;;0.82;;
70787;SDS011;58391;47.752;19.100;2022-08-19T05:37:38;2.43;;;1.27;;
70787;SDS011;58391;47.752;19.100;2022-08-19T05:40:07;2.92;;;1.20;;
70787;SDS011;58391;47.752;19.100;2022-08-19T05:42:35;2.03;;;1.00;;
70787;SDS011;58391;47.752;19.100;2022-08-19T05:45:02;2.43;;;1.10;;
70787;SDS011;58391;47.752;19.100;2022-08-19T05:47:30;3.87;;;1.70;;
70787;SDS011;58391;47.752;19.100;2022-08-19T05:49:56;2.80;;;1.37;;
70787;SDS011;58391;47.752;19.100;2022-08-19T05:52:23;1.98;;;0.90;;
70787;SDS011;58391;47.752;19.100;2022-08-19T05:54:52;2.20;;;1.10;;
70787;SDS011;58391;47.752;19.100;2022-08-19T05:57:22;1.98;;;0.95;;
70787;SDS011;58391;47.752;19.100;2022-08-19T05:59:50;2.30;;;1.25;;
70787;SDS011;58391;47.752;19.100;2022-08-19T06:02:24;3.17;;;0.97;;
70787;SDS011;58391;47.752;19.100;2022-08-19T06:04:52;2.25;;;0.95;;
70787;SDS011;58391;47.752;19.100;2022-08-19T06:07:19;1.95;;;1.10;;
70787;SDS011;58391;47.752;19.100;2022-08-19T06:09:46;1.97;;;1.07;;
70787;SDS011;58391;47.752;19.100;2022-08-19T06:12:29;2.20;;;1.30;;
70787;SDS011;58391;47.752;19.100;2022-08-19T06:15:01;2.70;;;1.37;;
70787;SDS011;58391;47.752;19.100;2022-08-19T06:17:30;2.30;;;1.10;;
70787;SDS011;58391;47.752;19.100;2022-08-19T06:19:58;3.12;;;1.58;;
70787;SDS011;58391;47.752;19.100;2022-08-19T06:22:25;2.00;;;1.10;;
70787;SDS011;58391;47.752;19.100;2022-08-19T06:24:53;2.60;;;1.45;;
70787;SDS011;58391;47.752;19.100;2022-08-19T06:27:21;4.60;;;1.65;;
70787;SDS011;58391;47.752;19.100;2022-08-19T06:29:48;2.20;;;1.40;;
70787;SDS011;58391;47.752;19.100;2022-08-19T06:32:16;5.12;;;1.87;;
70787;SDS011;58391;47.752;19.100;2022-08-19T06:34:45;2.30;;;1.40;;
70787;SDS011;58391;47.752;19.100;2022-08-19T06:37:13;2.20;;;1.30;;
70787;SDS011;58391;47.752;19.100;2022-08-19T06:39:40;2.90;;;1.62;;
70787;SDS011;58391;47.752;19.100;2022-08-19T06:42:10;2.10;;;1.20;;
70787;SDS011;58391;47.752;19.100;2022-08-19T06:44:40;2.25;;;1.23;;
70787;SDS011;58391;47.752;19.100;2022-08-19T06:47:15;4.57;;;1.37;;
70787;SDS011;58391;47.752;19.100;2022-08-19T06:49:55;5.10;;;2.92;;
70787;SDS011;58391;47.752;19.100;2022-08-19T06:52:29;2.47;;;1.23;;
70787;SDS011;58391;47.752;19.100;2022-08-19T06:55:00;2.50;;;1.40;;
70787;SDS011;58391;47.752;19.100;2022-08-19T06:57:32;2.40;;;1.42;;
70787;SDS011;58391;47.752;19.100;2022-08-19T06:59:59;3.80;;;1.70;;
70787;SDS011;58391;47.752;19.100;2022-08-19T07:02:27;3.28;;;1.60;;
70787;SDS011;58391;47.752;19.100;2022-08-19T07:04:54;2.55;;;1.40;;
70787;SDS011;58391;47.752;19.100;2022-08-19T07:07:24;2.20;;;1.40;;
70787;SDS011;58391;47.752;19.100;2022-08-19T07:09:51;2.10;;;1.30;;
70787;SDS011;58391;47.752;19.100;2022-08-19T07:12:29;2.28;;;1.30;;
70787;SDS011;58391;47.752;19.100;2022-08-19T07:15:02;2.55;;;1.55;;
70787;SDS011;58391;47.752;19.100;2022-08-19T07:17:31;1.93;;;1.20;;
70787;SDS011;58391;47.752;19.100;2022-08-19T07:20:00;3.37;;;1.80;;
70787;SDS011;58391;47.752;19.100;2022-08-19T07:22:34;2.37;;;1.60;;
70787;SDS011;58391;47.752;19.100;2022-08-19T07:25:02;2.30;;;1.30;;
70787;SDS011;58391;47.752;19.100;2022-08-19T07:27:30;3.47;;;2.20;;
70787;SDS011;58391;47.752;19.100;2022-08-19T07:29:59;2.50;;;1.62;;
70787;SDS011;58391;47.752;19.100;2022-08-19T07:32:27;2.70;;;1.55;;
70787;SDS011;58391;47.752;19.100;2022-08-19T07:34:54;2.78;;;1.77;;
70787;SDS011;58391;47.752;19.100;2022-08-19T07:37:23;2.10;;;1.30;;
70787;SDS011;58391;47.752;19.100;2022-08-19T07:39:58;2.47;;;1.75;;
70787;SDS011;58391;47.752;19.100;2022-08-19T07:42:25;4.05;;;1.98;;
70787;SDS011;58391;47.752;19.100;2022-08-19T07:44:53;2.40;;;1.60;;
70787;SDS011;58391;47.752;19.100;2022-08-19T07:47:19;2.10;;;1.37;;
70787;SDS011;58391;47.752;19.100;2022-08-19T07:50:08;2.85;;;1.70;;
70787;SDS011;58391;47.752;19.100;2022-08-19T07:52:38;2.60;;;1.65;;
70787;SDS011;58391;47.752;19.100;2022-08-19T07:55:07;2.40;;;1.50;;
70787;SDS011;58391;47.752;19.100;2022-08-19T07:57:55;2.60;;;1.57;;
70787;SDS011;58391;47.752;19.100;2022-08-19T08:00:22;3.60;;;1.95;;
70787;SDS011;58391;47.752;19.100;2022-08-19T08:02:50;2.58;;;1.55;;
70787;SDS011;58391;47.752;19.100;2022-08-19T08:05:21;2.30;;;1.53;;
70787;SDS011;58391;47.752;19.100;2022-08-19T08:08:10;2.30;;;1.52;;
70787;SDS011;58391;47.752;19.100;2022-08-19T08:10:57;4.30;;;2.87;;
70787;SDS011;58391;47.752;19.100;2022-08-19T08:13:25;2.37;;;1.60;;
70787;SDS011;58391;47.752;19.100;2022-08-19T08:15:54;2.55;;;1.65;;
70787;SDS011;58391;47.752;19.100;2022-08-19T08:18:22;2.27;;;1.47;;
70787;SDS011;58391;47.752;19.100;2022-08-19T08:20:54;2.97;;;1.70;;
70787;SDS011;58391;47.752;19.100;2022-08-19T08:23:22;3.20;;;1.95;;
70787;SDS011;58391;47.752;19.100;2022-08-19T08:29:51;2.53;;;1.73;;
70787;SDS011;58391;47.752;19.100;2022-08-19T08:32:19;3.80;;;1.97;;
70787;SDS011;58391;47.752;19.100;2022-08-19T08:34:46;3.17;;;2.03;;
70787;SDS011;58391;47.752;19.100;2022-08-19T08:37:17;2.50;;;1.75;;
70787;SDS011;58391;47.752;19.100;2022-08-19T08:39:44;3.22;;;2.30;;
70787;SDS011;58391;47.752;19.100;2022-08-19T08:42:17;2.40;;;1.50;;
70787;SDS011;58391;47.752;19.100;2022-08-19T08:45:10;3.13;;;2.10;;
70787;SDS011;58391;47.752;19.100;2022-08-19T08:47:43;2.35;;;1.62;;
70787;SDS011;58391;47.752;19.100;2022-08-19T08:53:11;2.35;;;1.58;;
70787;SDS011;58391;47.752;19.100;2022-08-19T08:55:55;3.43;;;2.03;;
70787;SDS011;58391;47.752;19.100;2022-08-19T08:58:27;3.45;;;2.17;;
70787;SDS011;58391;47.752;19.100;2022-08-19T09:00:57;2.60;;;1.70;;
70787;SDS011;58391;47.752;19.100;2022-08-19T09:03:25;3.00;;;2.20;;
70787;SDS011;58391;47.752;19.100;2022-08-19T09:05:59;3.15;;;1.87;;
70787;SDS011;58391;47.752;19.100;2022-08-19T09:08:56;5.47;;;3.08;;
70787;SDS011;58391;47.752;19.100;2022-08-19T09:17:17;2.45;;;1.73;;
70787;SDS011;58391;47.752;19.100;2022-08-19T09:19:59;3.12;;;2.45;;
70787;SDS011;58391;47.752;19.100;2022-08-19T09:22:31;3.08;;;2.53;;
70787;SDS011;58391;47.752;19.100;2022-08-19T09:24:58;2.93;;;1.83;;
70787;SDS011;58391;47.752;19.100;2022-08-19T09:27:26;3.35;;;2.10;;
70787;SDS011;58391;47.752;19.100;2022-08-19T09:30:08;3.90;;;3.30;;
70787;SDS011;58391;47.752;19.100;2022-08-19T09:32:41;3.00;;;2.30;;
70787;SDS011;58391;47.752;19.100;2022-08-19T09:35:09;2.87;;;1.90;;
70787;SDS011;58391;47.752;19.100;2022-08-19T09:37:37;2.75;;;2.08;;
70787;SDS011;58391;47.752;19.100;2022-08-19T09:40:05;3.97;;;2.37;;
70787;SDS011;58391;47.752;19.100;2022-08-19T09:42:37;2.95;;;2.10;;
70787;SDS011;58391;47.752;19.100;2022-08-19T09:45:16;3.45;;;1.92;;
70787;SDS011;58391;47.752;19.100;2022-08-19T09:47:44;3.00;;;2.17;;
70787;SDS011;58391;47.752;19.100;2022-08-19T09:50:13;3.95;;;2.28;;
70787;SDS011;58391;47.752;19.100;2022-08-19T09:52:42;4.15;;;2.20;;
70787;SDS011;58391;47.752;19.100;2022-08-19T09:55:21;2.60;;;1.85;;
70787;SDS011;58391;47.752;19.100;2022-08-19T09:57:49;2.60;;;1.98;;
70787;SDS011;58391;47.752;19.100;2022-08-19T10:00:16;3.00;;;2.20;;
70787;SDS011;58391;47.752;19.100;2022-08-19T10:02:44;2.90;;;2.03;;
70787;SDS011;58391;47.752;19.100;2022-08-19T10:05:11;3.20;;;2.55;;
70787;SDS011;58391;47.752;19.100;2022-08-19T10:07:56;4.82;;;2.50;;
70787;SDS011;58391;47.752;19.100;2022-08-19T10:10:23;2.97;;;2.10;;
70787;SDS011;58391;47.752;19.100;2022-08-19T10:12:52;2.90;;;2.10;;
70787;SDS011;58391;47.752;19.100;2022-08-19T10:15:19;3.83;;;2.60;;
70787;SDS011;58391;47.752;19.100;2022-08-19T10:17:55;3.37;;;2.70;;
70787;SDS011;58391;47.752;19.100;2022-08-19T10:20:24;3.93;;;1.93;;
70787;SDS011;58391;47.752;19.100;2022-08-19T10:22:51;2.95;;;2.00;;
70787;SDS011;58391;47.752;19.100;2022-08-19T10:25:18;3.60;;;2.17;;
70787;SDS011;58391;47.752;19.100;2022-08-19T10:27:46;3.22;;;2.58;;
70787;SDS011;58391;47.752;19.100;2022-08-19T10:30:17;3.23;;;2.07;;
70787;SDS011;58391;47.752;19.100;2022-08-19T10:32:45;3.20;;;2.08;;
70787;SDS011;58391;47.752;19.100;2022-08-19T10:35:12;3.05;;;2.08;;
70787;SDS011;58391;47.752;19.100;2022-08-19T10:37:47;2.70;;;2.00;;
70787;SDS011;58391;47.752;19.100;2022-08-19T10:40:26;3.23;;;2.50;;
70787;SDS011;58391;47.752;19.100;2022-08-19T10:42:54;3.40;;;1.98;;
70787;SDS011;58391;47.752;19.100;2022-08-19T10:45:22;3.45;;;2.10;;
70787;SDS011;58391;47.752;19.100;2022-08-19T10:47:53;3.37;;;2.25;;
70787;SDS011;58391;47.752;19.100;2022-08-19T10:50:21;2.70;;;1.90;;
70787;SDS011;58391;47.752;19.100;2022-08-19T10:53:07;3.78;;;2.08;;
70787;SDS011;58391;47.752;19.100;2022-08-19T10:55:35;3.17;;;2.50;;
70787;SDS011;58391;47.752;19.100;2022-08-19T10:58:21;2.83;;;2.25;;
70787;SDS011;58391;47.752;19.100;2022-08-19T11:00:55;3.03;;;2.35;;
70787;SDS011;58391;47.752;19.100;2022-08-19T11:03:25;3.40;;;2.47;;
70787;SDS011;58391;47.752;19.100;2022-08-19T11:06:02;6.37;;;2.83;;
70787;SDS011;58391;47.752;19.100;2022-08-19T11:08:32;3.90;;;2.50;;
70787;SDS011;58391;47.752;19.100;2022-08-19T11:11:01;2.87;;;2.10;;
70787;SDS011;58391;47.752;19.100;2022-08-19T11:13:30;3.20;;;2.10;;
70787;SDS011;58391;47.752;19.100;2022-08-19T11:16:02;2.80;;;2.03;;
70787;SDS011;58391;47.752;19.100;2022-08-19T11:18:44;3.35;;;2.42;;
70787;SDS011;58391;47.752;19.100;2022-08-19T11:21:25;3.42;;;2.58;;
70787;SDS011;58391;47.752;19.100;2022-08-19T11:24:06;3.53;;;2.67;;
70787;SDS011;58391;47.752;19.100;2022-08-19T11:26:39;3.45;;;2.40;;
70787;SDS011;58391;47.752;19.100;2022-08-19T11:29:07;3.25;;;2.33;;
70787;SDS011;58391;47.752;19.100;2022-08-19T11:31:43;2.83;;;2.15;;
70787;SDS011;58391;47.752;19.100;2022-08-19T11:34:13;2.85;;;2.10;;
70787;SDS011;58391;47.752;19.100;2022-08-19T11:36:43;3.33;;;2.33;;
70787;SDS011;58391;47.752;19.100;2022-08-19T11:39:12;3.37;;;2.20;;
70787;SDS011;58391;47.752;19.100;2022-08-19T11:41:41;2.92;;;2.30;;
70787;SDS011;58391;47.752;19.100;2022-08-19T11:44:08;2.40;;;1.40;;
70787;SDS011;58391;47.752;19.100;2022-08-19T11:46:36;3.55;;;2.20;;
70787;SDS011;58391;47.752;19.100;2022-08-19T11:49:03;5.40;;;2.40;;
70787;SDS011;58391;47.752;19.100;2022-08-19T11:51:36;3.55;;;2.55;;
70787;SDS011;58391;47.752;19.100;2022-08-19T11:54:04;3.03;;;2.47;;
70787;SDS011;58391;47.752;19.100;2022-08-19T11:56:31;2.72;;;2.00;;
70787;SDS011;58391;47.752;19.100;2022-08-19T11:59:00;2.78;;;2.03;;
70787;SDS011;58391;47.752;19.100;2022-08-19T12:01:27;3.15;;;2.25;;
70787;SDS011;58391;47.752;19.100;2022-08-19T12:03:54;4.00;;;2.10;;
70787;SDS011;58391;47.752;19.100;2022-08-19T12:06:24;3.62;;;2.97;;
70787;SDS011;58391;47.752;19.100;2022-08-19T12:08:55;4.78;;;2.50;;
70787;SDS011;58391;47.752;19.100;2022-08-19T12:11:23;3.15;;;2.60;;
70787;SDS011;58391;47.752;19.100;2022-08-19T12:13:50;4.93;;;3.47;;
70787;SDS011;58391;47.752;19.100;2022-08-19T12:16:18;2.80;;;2.20;;
70787;SDS011;58391;47.752;19.100;2022-08-19T12:18:47;2.87;;;2.30;;
70787;SDS011;58391;47.752;19.100;2022-08-19T12:21:14;4.62;;;2.50;;
70787;SDS011;58391;47.752;19.100;2022-08-19T12:23:42;5.28;;;3.47;;
70787;SDS011;58391;47.752;19.100;2022-08-19T12:26:11;5.93;;;2.90;;
70787;SDS011;58391;47.752;19.100;2022-08-19T12:28:38;4.72;;;2.72;;
70787;SDS011;58391;47.752;19.100;2022-08-19T12:31:05;3.55;;;2.90;;
70787;SDS011;58391;47.752;19.100;2022-08-19T12:33:32;4.00;;;3.30;;
70787;SDS011;58391;47.752;19.100;2022-08-19T12:36:00;3.28;;;2.60;;
70787;SDS011;58391;47.752;19.100;2022-08-19T12:38:32;2.73;;;2.23;;
70787;SDS011;58391;47.752;19.100;2022-08-19T12:41:00;3.33;;;2.47;;
70787;SDS011;58391;47.752;19.100;2022-08-19T12:43:32;3.03;;;2.50;;
70787;SDS011;58391;47.752;19.100;2022-08-19T12:46:01;3.65;;;2.85;;
70787;SDS011;58391;47.752;19.100;2022-08-19T12:48:30;2.93;;;2.27;;
70787;SDS011;58391;47.752;19.100;2022-08-19T12:51:00;3.10;;;2.12;;
70787;SDS011;58391;47.752;19.100;2022-08-19T12:53:32;4.70;;;2.55;;
70787;SDS011;58391;47.752;19.100;2022-08-19T12:56:05;2.85;;;2.28;;
70787;SDS011;58391;47.752;19.100;2022-08-19T12:58:38;6.63;;;2.73;;
70787;SDS011;58391;47.752;19.100;2022-08-19T13:01:06;3.33;;;2.53;;
70787;SDS011;58391;47.752;19.100;2022-08-19T13:03:35;3.20;;;2.72;;
70787;SDS011;58391;47.752;19.100;2022-08-19T13:06:06;3.97;;;2.75;;
70787;SDS011;58391;47.752;19.100;2022-08-19T13:08:34;2.97;;;2.57;;
70787;SDS011;58391;47.752;19.100;2022-08-19T13:11:09;3.47;;;2.93;;
70787;SDS011;58391;47.752;19.100;2022-08-19T13:13:40;4.55;;;2.80;;
70787;SDS011;58391;47.752;19.100;2022-08-19T13:16:09;3.28;;;2.42;;
70787;SDS011;58391;47.752;19.100;2022-08-19T13:18:37;3.10;;;2.60;;
70787;SDS011;58391;47.752;19.100;2022-08-19T13:21:06;3.10;;;2.40;;
70787;SDS011;58391;47.752;19.100;2022-08-19T13:23:35;3.72;;;2.97;;
70787;SDS011;58391;47.752;19.100;2022-08-19T13:26:03;3.45;;;2.87;;
70787;SDS011;58391;47.752;19.100;2022-08-19T13:28:31;7.97;;;2.70;;
70787;SDS011;58391;47.752;19.100;2022-08-19T13:31:18;3.13;;;2.23;;
70787;SDS011;58391;47.752;19.100;2022-08-19T13:34:06;3.28;;;2.50;;
70787;SDS011;58391;47.752;19.100;2022-08-19T13:36:34;3.97;;;2.10;;
70787;SDS011;58391;47.752;19.100;2022-08-19T13:39:01;3.22;;;2.30;;
70787;SDS011;58391;47.752;19.100;2022-08-19T13:41:29;2.92;;;2.33;;
70787;SDS011;58391;47.752;19.100;2022-08-19T13:43:56;4.00;;;2.90;;
70787;SDS011;58391;47.752;19.100;2022-08-19T13:46:23;8.25;;;3.17;;
70787;SDS011;58391;47.752;19.100;2022-08-19T13:48:50;4.47;;;2.28;;
70787;SDS011;58391;47.752;19.100;2022-08-19T13:51:17;4.55;;;3.22;;
70787;SDS011;58391;47.752;19.100;2022-08-19T13:53:44;3.58;;;2.70;;
70787;SDS011;58391;47.752;19.100;2022-08-19T13:56:15;4.80;;;3.07;;
70787;SDS011;58391;47.752;19.100;2022-08-19T13:58:46;2.87;;;2.17;;
70787;SDS011;58391;47.752;19.100;2022-08-19T14:01:18;3.78;;;2.72;;
70787;SDS011;58391;47.752;19.100;2022-08-19T14:03:49;4.07;;;2.67;;
70787;SDS011;58391;47.752;19.100;2022-08-19T14:06:16;3.50;;;2.80;;
70787;SDS011;58391;47.752;19.100;2022-08-19T14:08:43;3.33;;;2.70;;
70787;SDS011;58391;47.752;19.100;2022-08-19T14:11:11;4.85;;;2.95;;
70787;SDS011;58391;47.752;19.100;2022-08-19T14:13:39;4.57;;;2.78;;
70787;SDS011;58391;47.752;19.100;2022-08-19T14:16:07;3.08;;;2.05;;
70787;SDS011;58391;47.752;19.100;2022-08-19T14:18:35;4.17;;;2.73;;
70787;SDS011;58391;47.752;19.100;2022-08-19T14:21:02;2.60;;;1.92;;
70787;SDS011;58391;47.752;19.100;2022-08-19T14:23:31;4.85;;;2.12;;
70787;SDS011;58391;47.752;19.100;2022-08-19T14:26:09;3.87;;;2.20;;
70787;SDS011;58391;47.752;19.100;2022-08-19T14:28:38;3.10;;;2.30;;
70787;SDS011;58391;47.752;19.100;2022-08-19T14:31:10;2.37;;;1.77;;
70787;SDS011;58391;47.752;19.100;2022-08-19T14:33:39;4.15;;;2.12;;
70787;SDS011;58391;47.752;19.100;2022-08-19T14:36:07;2.70;;;1.80;;
70787;SDS011;58391;47.752;19.100;2022-08-19T14:38:34;2.33;;;1.57;;
70787;SDS011;58391;47.752;19.100;2022-08-19T14:41:06;2.85;;;1.73;;
70787;SDS011;58391;47.752;19.100;2022-08-19T14:43:37;2.97;;;1.52;;
70787;SDS011;58391;47.752;19.100;2022-08-19T14:46:04;2.53;;;1.70;;
70787;SDS011;58391;47.752;19.100;2022-08-19T14:48:32;4.60;;;1.30;;
70787;SDS011;58391;47.752;19.100;2022-08-19T14:50:59;2.35;;;1.65;;
70787;SDS011;58391;47.752;19.100;2022-08-19T14:53:26;7.15;;;2.05;;
70787;SDS011;58391;47.752;19.100;2022-08-19T14:55:53;2.15;;;1.50;;
70787;SDS011;58391;47.752;19.100;2022-08-19T14:58:20;2.40;;;1.60;;
70787;SDS011;58391;47.752;19.100;2022-08-19T15:00:56;4.95;;;1.35;;
70787;SDS011;58391;47.752;19.100;2022-08-19T15:03:24;3.80;;;2.67;;
70787;SDS011;58391;47.752;19.100;2022-08-19T15:05:52;2.25;;;1.50;;
70787;SDS011;58391;47.752;19.100;2022-08-19T15:08:19;2.37;;;1.63;;